Time,TemperatureF,DewpointF,PressureIn,WindDirection,WindDirectionDegrees,WindSpeedMPH,WindSpeedGustMPH,Humidity,HourlyPrecipIn,Conditions,Clouds,dailyrainin,SolarRadiationWatts/m^2,SoftwareType,DateUTC
2013-08-21 00:23:00,75.0,75.0,-100.00,SSW,210,14.0,20.0,100,0.00,,,0.00,0.000000,,2013-08-21 05:23:00,
2013-08-21 00:34:00,75.0,75.0,-100.00,SSW,210,14.0,20.0,100,0.00,,,0.00,0.000000,,2013-08-21 05:34:00,
2013-08-21 00:43:00,75.0,75.0,-100.00,SSW,210,14.0,20.0,100,0.00,,,0.00,0.000000,,2013-08-21 05:43:00,
2013-08-21 00:52:00,75.0,75.0,-100.00,SSW,210,14.0,20.0,100,0.00,,,0.00,0.000000,,2013-08-21 05:52:00,
2013-08-21 01:22:00,76.0,76.0,-100.00,SW,221,13.0,18.0,100,0.00,,,0.00,0.000000,,2013-08-21 06:22:00,
2013-08-21 01:32:00,76.0,76.0,-100.00,SW,221,13.0,18.0,100,0.00,,,0.00,0.000000,,2013-08-21 06:32:00,
2013-08-21 01:42:00,76.0,76.0,-100.00,SW,221,13.0,18.0,100,0.00,,,0.00,0.000000,,2013-08-21 06:42:00,
2013-08-21 01:52:00,76.0,76.0,-100.00,SW,221,13.0,18.0,100,0.00,,,0.00,0.000000,,2013-08-21 06:52:00,
2013-08-21 02:22:00,75.0,75.0,-100.00,SW,223,11.0,17.0,100,0.00,,,0.00,0.000000,,2013-08-21 07:22:00,
2013-08-21 02:32:00,75.0,75.0,-100.00,SW,223,11.0,17.0,100,0.00,,,0.00,0.000000,,2013-08-21 07:32:00,
2013-08-21 02:42:00,75.0,75.0,-100.00,SW,223,11.0,17.0,100,0.00,,,0.00,0.000000,,2013-08-21 07:42:00,
2013-08-21 02:53:00,75.0,75.0,-100.00,SW,223,11.0,17.0,100,0.00,,,0.00,0.000000,,2013-08-21 07:53:00,
2013-08-21 03:22:00,75.0,75.0,-100.00,WSW,245,13.0,17.0,100,0.00,,,0.00,0.000000,,2013-08-21 08:22:00,
2013-08-21 03:32:00,75.0,75.0,-100.00,WSW,245,13.0,17.0,100,0.00,,,0.00,0.000000,,2013-08-21 08:32:00,
2013-08-21 03:43:00,75.0,75.0,-100.00,WSW,245,13.0,17.0,100,0.00,,,0.00,0.000000,,2013-08-21 08:43:00,
2013-08-21 03:52:00,75.0,75.0,-100.00,WSW,245,13.0,17.0,100,0.00,,,0.00,0.000000,,2013-08-21 08:52:00,
2013-08-21 04:22:00,73.0,73.0,-100.00,NW,315,11.0,16.0,100,0.00,,,0.00,0.000000,,2013-08-21 09:22:00,
2013-08-21 04:33:00,73.0,73.0,-100.00,NW,315,11.0,16.0,100,0.00,,,0.00,0.000000,,2013-08-21 09:33:00,
2013-08-21 04:43:00,73.0,73.0,-100.00,NW,315,11.0,16.0,100,0.00,,,0.00,0.000000,,2013-08-21 09:43:00,
2013-08-21 04:53:00,73.0,73.0,-100.00,NW,315,11.0,16.0,100,0.00,,,0.00,0.000000,,2013-08-21 09:53:00,
2013-08-21 05:23:00,72.0,72.0,-100.00,NW,319,9.0,14.0,100,0.00,,,0.00,0.000000,,2013-08-21 10:23:00,
2013-08-21 05:33:00,72.0,72.0,-100.00,NW,319,9.0,14.0,100,0.00,,,0.00,0.000000,,2013-08-21 10:33:00,
2013-08-21 05:43:00,72.0,72.0,-100.00,NW,319,9.0,14.0,100,0.00,,,0.00,0.000000,,2013-08-21 10:43:00,
2013-08-21 05:52:00,72.0,72.0,-100.00,NW,319,9.0,14.0,100,0.00,,,0.00,0.000000,,2013-08-21 10:52:00,
2013-08-21 06:22:00,68.0,68.0,-100.00,NNE,24,14.0,18.0,100,0.00,,,0.00,0.000000,,2013-08-21 11:22:00,
2013-08-21 06:33:00,68.0,68.0,-100.00,NNE,24,14.0,18.0,100,0.00,,,0.00,0.000000,,2013-08-21 11:33:00,
2013-08-21 06:42:00,68.0,68.0,-100.00,NNE,24,14.0,18.0,100,0.00,,,0.00,0.000000,,2013-08-21 11:42:00,
2013-08-21 06:52:00,68.0,68.0,-100.00,NNE,24,14.0,18.0,100,0.00,,,0.00,0.000000,,2013-08-21 11:52:00,
2013-08-21 07:22:00,63.0,62.0,-100.00,NE,37,15.0,20.0,98,0.00,,,0.00,3.000000,,2013-08-21 12:22:00,
2013-08-21 07:32:00,63.0,62.0,-100.00,NE,37,15.0,20.0,98,0.00,,,0.00,3.000000,,2013-08-21 12:32:00,
2013-08-21 07:42:00,63.0,62.0,-100.00,NE,37,15.0,20.0,98,0.00,,,0.00,3.000000,,2013-08-21 12:42:00,
2013-08-21 07:52:00,63.0,62.0,-100.00,NE,37,15.0,20.0,98,0.00,,,0.00,3.000000,,2013-08-21 12:52:00,
2013-08-21 08:21:00,63.0,62.0,-100.00,NE,35,16.0,20.0,95,0.00,,,0.00,58.000000,,2013-08-21 13:21:00,
2013-08-21 08:32:00,63.0,62.0,-100.00,NE,35,16.0,20.0,95,0.00,,,0.00,58.000000,,2013-08-21 13:32:00,
2013-08-21 08:42:00,63.0,62.0,-100.00,NE,35,16.0,20.0,95,0.00,,,0.00,58.000000,,2013-08-21 13:42:00,
2013-08-21 08:52:00,63.0,62.0,-100.00,NE,35,16.0,20.0,95,0.00,,,0.00,58.000000,,2013-08-21 13:52:00,
2013-08-21 09:21:00,65.0,60.0,-100.00,NE,45,15.0,21.0,84,0.00,,,0.00,118.000000,,2013-08-21 14:21:00,
2013-08-21 09:32:00,65.0,60.0,-100.00,NE,45,15.0,21.0,84,0.00,,,0.00,118.000000,,2013-08-21 14:32:00,
2013-08-21 09:42:00,65.0,60.0,-100.00,NE,45,15.0,21.0,84,0.00,,,0.00,118.000000,,2013-08-21 14:42:00,
2013-08-21 09:52:00,65.0,60.0,-100.00,NE,45,15.0,21.0,84,0.00,,,0.00,118.000000,,2013-08-21 14:52:00,
2013-08-21 10:43:00,70.0,61.0,-100.00,ENE,67,11.0,23.0,73,0.00,,,0.00,113.000000,,2013-08-21 15:43:00,
2013-08-21 10:54:00,70.0,61.0,-100.00,ENE,67,11.0,23.0,73,0.00,,,0.00,113.000000,,2013-08-21 15:54:00,
2013-08-21 11:24:00,74.0,61.0,-100.00,ENE,60,11.0,17.0,65,0.00,,,0.00,611.000000,,2013-08-21 16:24:00,
2013-08-21 11:34:00,74.0,61.0,-100.00,ENE,60,11.0,17.0,65,0.00,,,0.00,611.000000,,2013-08-21 16:34:00,
2013-08-21 11:43:00,74.0,61.0,-100.00,ENE,60,11.0,17.0,65,0.00,,,0.00,611.000000,,2013-08-21 16:43:00,
2013-08-21 11:53:00,74.0,61.0,-100.00,ENE,60,11.0,17.0,65,0.00,,,0.00,611.000000,,2013-08-21 16:53:00,
2013-08-21 12:23:00,76.0,62.0,-100.00,NE,48,13.0,20.0,62,0.00,,,0.00,801.000000,,2013-08-21 17:23:00,
2013-08-21 12:34:00,76.0,62.0,-100.00,NE,48,13.0,20.0,62,0.00,,,0.00,801.000000,,2013-08-21 17:34:00,
2013-08-21 12:43:00,76.0,62.0,-100.00,NE,48,13.0,20.0,62,0.00,,,0.00,801.000000,,2013-08-21 17:43:00,
2013-08-21 12:53:00,76.0,62.0,-100.00,NE,48,13.0,20.0,62,0.00,,,0.00,801.000000,,2013-08-21 17:53:00,
2013-08-21 13:22:00,78.0,62.0,-100.00,NE,49,13.0,18.0,57,0.00,,,0.00,942.000000,,2013-08-21 18:22:00,
2013-08-21 13:32:00,78.0,62.0,-100.00,NE,49,13.0,18.0,57,0.00,,,0.00,942.000000,,2013-08-21 18:32:00,
2013-08-21 13:42:00,78.0,62.0,-100.00,NE,49,13.0,18.0,57,0.00,,,0.00,942.000000,,2013-08-21 18:42:00,
2013-08-21 13:52:00,78.0,62.0,-100.00,NE,49,13.0,18.0,57,0.00,,,0.00,942.000000,,2013-08-21 18:52:00,
2013-08-21 14:22:00,78.0,60.0,-100.00,NE,48,12.0,20.0,54,0.00,,,0.00,932.000000,,2013-08-21 19:22:00,
2013-08-21 14:32:00,78.0,60.0,-100.00,NE,48,12.0,20.0,54,0.00,,,0.00,932.000000,,2013-08-21 19:32:00,
2013-08-21 14:42:00,78.0,60.0,-100.00,NE,48,12.0,20.0,54,0.00,,,0.00,932.000000,,2013-08-21 19:42:00,
2013-08-21 14:52:00,78.0,60.0,-100.00,NE,48,12.0,20.0,54,0.00,,,0.00,932.000000,,2013-08-21 19:52:00,
2013-08-21 15:22:00,79.0,61.0,-100.00,NE,52,11.0,18.0,54,0.00,,,0.00,808.000000,,2013-08-21 20:22:00,
2013-08-21 15:32:00,79.0,61.0,-100.00,NE,52,11.0,18.0,54,0.00,,,0.00,808.000000,,2013-08-21 20:32:00,
2013-08-21 15:42:00,79.0,61.0,-100.00,NE,52,11.0,18.0,54,0.00,,,0.00,808.000000,,2013-08-21 20:42:00,
2013-08-21 15:52:00,79.0,61.0,-100.00,NE,52,11.0,18.0,54,0.00,,,0.00,808.000000,,2013-08-21 20:52:00,
2013-08-21 16:21:00,79.0,60.0,-100.00,NE,52,11.0,17.0,52,0.00,,,0.00,767.000000,,2013-08-21 21:21:00,
2013-08-21 16:34:00,79.0,60.0,-100.00,NE,52,11.0,17.0,52,0.00,,,0.00,767.000000,,2013-08-21 21:34:00,
2013-08-21 16:44:00,79.0,60.0,-100.00,NE,52,11.0,17.0,52,0.00,,,0.00,767.000000,,2013-08-21 21:44:00,
2013-08-21 16:54:00,79.0,60.0,-100.00,NE,52,11.0,17.0,52,0.00,,,0.00,767.000000,,2013-08-21 21:54:00,
2013-08-21 17:24:00,79.0,58.0,-100.00,ENE,59,12.0,17.0,49,0.00,,,0.00,661.000000,,2013-08-21 22:24:00,
2013-08-21 17:34:00,79.0,58.0,-100.00,ENE,59,12.0,17.0,49,0.00,,,0.00,661.000000,,2013-08-21 22:34:00,
2013-08-21 17:43:00,79.0,58.0,-100.00,ENE,59,12.0,17.0,49,0.00,,,0.00,661.000000,,2013-08-21 22:43:00,
2013-08-21 17:53:00,79.0,58.0,-100.00,ENE,59,12.0,17.0,49,0.00,,,0.00,661.000000,,2013-08-21 22:53:00,
2013-08-21 18:22:00,78.0,58.0,-100.00,NE,49,12.0,17.0,50,0.00,,,0.00,430.000000,,2013-08-21 23:22:00,
2013-08-21 18:34:00,78.0,58.0,-100.00,NE,49,12.0,17.0,50,0.00,,,0.00,430.000000,,2013-08-21 23:34:00,
2013-08-21 18:43:00,78.0,58.0,-100.00,NE,49,12.0,17.0,50,0.00,,,0.00,430.000000,,2013-08-21 23:43:00,
2013-08-21 18:53:00,78.0,58.0,-100.00,NE,49,12.0,17.0,50,0.00,,,0.00,430.000000,,2013-08-21 23:53:00,
2013-08-21 19:22:00,75.0,55.0,-100.00,NE,46,12.0,19.0,50,0.00,,,0.00,291.000000,,2013-08-22 00:22:00,
2013-08-21 19:32:00,75.0,55.0,-100.00,NE,46,12.0,19.0,50,0.00,,,0.00,291.000000,,2013-08-22 00:32:00,
2013-08-21 19:42:00,75.0,55.0,-100.00,NE,46,12.0,19.0,50,0.00,,,0.00,291.000000,,2013-08-22 00:42:00,
2013-08-21 19:52:00,75.0,55.0,-100.00,NE,46,12.0,19.0,50,0.00,,,0.00,291.000000,,2013-08-22 00:52:00,
2013-08-21 20:22:00,71.0,58.0,-100.00,NE,44,10.0,16.0,63,0.00,,,0.00,67.000000,,2013-08-22 01:22:00,
2013-08-21 20:32:00,71.0,58.0,-100.00,NE,44,10.0,16.0,63,0.00,,,0.00,67.000000,,2013-08-22 01:32:00,
2013-08-21 20:42:00,71.0,58.0,-100.00,NE,44,10.0,16.0,63,0.00,,,0.00,67.000000,,2013-08-22 01:42:00,
2013-08-21 20:52:00,71.0,58.0,-100.00,NE,44,10.0,16.0,63,0.00,,,0.00,67.000000,,2013-08-22 01:52:00,
2013-08-21 21:22:00,70.0,58.0,-100.00,NE,47,11.0,15.0,66,0.00,,,0.00,7.000000,,2013-08-22 02:22:00,
2013-08-21 21:32:00,70.0,58.0,-100.00,NE,47,11.0,15.0,66,0.00,,,0.00,7.000000,,2013-08-22 02:32:00,
2013-08-21 21:43:00,70.0,58.0,-100.00,NE,47,11.0,15.0,66,0.00,,,0.00,7.000000,,2013-08-22 02:43:00,
2013-08-21 21:52:00,70.0,58.0,-100.00,NE,47,11.0,15.0,66,0.00,,,0.00,7.000000,,2013-08-22 02:52:00,
2013-08-21 22:22:00,68.0,54.0,-100.00,NE,45,13.0,17.0,60,0.00,,,0.00,0.000000,,2013-08-22 03:22:00,
2013-08-21 22:34:00,68.0,54.0,-100.00,NE,45,13.0,17.0,60,0.00,,,0.00,0.000000,,2013-08-22 03:34:00,
2013-08-21 22:45:00,68.0,54.0,-100.00,NE,45,13.0,17.0,60,0.00,,,0.00,0.000000,,2013-08-22 03:45:00,
2013-08-21 22:54:00,68.0,54.0,-100.00,NE,45,13.0,17.0,60,0.00,,,0.00,0.000000,,2013-08-22 03:54:00,
2013-08-21 23:23:00,68.0,52.0,-100.00,NE,53,14.0,19.0,57,0.00,,,0.00,0.000000,,2013-08-22 04:23:00,
2013-08-21 23:34:00,68.0,52.0,-100.00,NE,53,14.0,19.0,57,0.00,,,0.00,0.000000,,2013-08-22 04:34:00,
2013-08-21 23:44:00,68.0,52.0,-100.00,NE,53,14.0,19.0,57,0.00,,,0.00,0.000000,,2013-08-22 04:44:00,
2013-08-21 23:54:00,68.0,52.0,-100.00,NE,53,14.0,19.0,57,0.00,,,0.00,0.000000,,2013-08-22 04:54:00,